createdAt,value
2023-11-30T00:00:38.464Z,15.02
2023-11-30T00:03:06.307Z,15.00
2023-11-30T00:05:34.292Z,14.88
2023-11-30T00:08:02.130Z,18.88
2023-11-30T00:10:29.938Z,15.70
2023-11-30T00:12:57.782Z,20.88
2023-11-30T00:15:27.292Z,17.50
2023-11-30T00:17:55.389Z,15.32
2023-11-30T00:20:23.202Z,17.83
2023-11-30T00:22:50.916Z,15.63
2023-11-30T00:25:18.652Z,18.05
2023-11-30T00:27:46.487Z,15.43
2023-11-30T00:30:14.712Z,16.63
2023-11-30T00:32:47.119Z,22.33
2023-11-30T00:35:15.199Z,14.60
2023-11-30T00:37:43.000Z,18.88
2023-11-30T00:40:12.067Z,17.55
2023-11-30T00:42:43.011Z,14.27
2023-11-30T00:45:12.152Z,15.70
2023-11-30T00:47:40.217Z,16.75
2023-11-30T00:50:09.913Z,17.98
2023-11-30T00:52:37.651Z,19.40
2023-11-30T00:55:05.958Z,17.35
2023-11-30T00:57:33.891Z,17.40
2023-11-30T01:00:01.951Z,18.20
2023-11-30T01:02:30.005Z,18.70
2023-11-30T01:04:58.381Z,21.83
2023-11-30T01:07:27.675Z,20.13
2023-11-30T01:09:55.712Z,19.33
2023-11-30T01:12:25.052Z,18.77
2023-11-30T01:14:53.195Z,17.90
2023-11-30T01:17:21.075Z,17.65
2023-11-30T01:19:49.083Z,18.98
2023-11-30T01:22:17.065Z,17.02
2023-11-30T01:24:46.293Z,18.77
2023-11-30T01:27:14.166Z,19.17
2023-11-30T01:29:42.000Z,19.63
2023-11-30T01:32:09.704Z,20.75
2023-11-30T01:34:37.436Z,17.70
2023-11-30T01:37:05.188Z,17.83
2023-11-30T01:39:32.898Z,17.70
2023-11-30T01:42:04.841Z,20.55
2023-11-30T01:44:34.738Z,20.10
2023-11-30T01:47:03.087Z,21.13
2023-11-30T01:49:31.112Z,18.20
2023-11-30T01:51:59.376Z,18.83
2023-11-30T01:54:27.474Z,20.48
2023-11-30T01:56:55.646Z,20.52
2023-11-30T01:59:24.820Z,18.25
2023-11-30T02:01:53.060Z,19.10
2023-11-30T02:04:21.147Z,17.70
2023-11-30T02:06:49.316Z,19.80
2023-11-30T02:09:17.715Z,20.00
2023-11-30T02:11:45.572Z,18.30
2023-11-30T02:14:13.464Z,20.33
2023-11-30T02:16:42.583Z,18.90
2023-11-30T02:19:10.341Z,16.75
2023-11-30T02:21:38.486Z,16.75
2023-11-30T02:24:09.877Z,20.20
2023-11-30T02:26:37.642Z,16.17
2023-11-30T02:29:05.586Z,20.05
2023-11-30T02:31:33.540Z,18.13
2023-11-30T02:34:01.505Z,18.80
2023-11-30T02:36:30.771Z,19.02
2023-11-30T02:38:58.597Z,19.17
2023-11-30T02:41:29.933Z,21.27
2023-11-30T02:43:57.849Z,18.38
2023-11-30T02:46:25.918Z,18.02
2023-11-30T02:48:53.847Z,20.30
2023-11-30T02:51:21.723Z,18.10
2023-11-30T02:53:49.534Z,19.70
2023-11-30T02:56:17.543Z,19.38
2023-11-30T02:58:46.650Z,18.38
2023-11-30T03:01:14.495Z,21.98
2023-11-30T03:03:42.680Z,19.75
2023-11-30T03:06:14.113Z,19.17
2023-11-30T03:08:42.040Z,18.48
2023-11-30T03:11:09.893Z,18.15
2023-11-30T03:13:37.836Z,24.25
2023-11-30T03:16:07.469Z,17.08
2023-11-30T03:18:35.261Z,18.98
2023-11-30T03:21:03.138Z,20.27
2023-11-30T03:23:30.850Z,18.40
2023-11-30T03:25:58.644Z,19.05
2023-11-30T03:28:28.997Z,22.23
2023-11-30T03:30:56.902Z,21.73
2023-11-30T03:33:26.023Z,20.73
2023-11-30T03:35:53.925Z,28.10
2023-11-30T03:38:21.914Z,22.25
2023-11-30T03:40:50.283Z,22.75
2023-11-30T03:43:18.527Z,24.30
2023-11-30T03:45:46.434Z,22.80
2023-11-30T03:48:14.271Z,22.90
2023-11-30T03:50:43.397Z,22.15
2023-11-30T03:53:11.098Z,25.98
2023-11-30T03:55:38.875Z,23.85
2023-11-30T03:58:06.582Z,23.55
2023-11-30T04:00:34.425Z,21.75
2023-11-30T04:03:02.416Z,22.58
2023-11-30T04:05:31.350Z,24.20
2023-11-30T04:08:01.599Z,27.48
2023-11-30T04:10:29.570Z,23.85
2023-11-30T04:12:57.319Z,20.00
2023-11-30T04:15:25.113Z,24.08
2023-11-30T04:17:54.169Z,22.95
2023-11-30T04:20:21.987Z,20.58
2023-11-30T04:22:49.676Z,24.10
2023-11-30T04:25:19.474Z,24.38
2023-11-30T04:27:47.212Z,24.42
2023-11-30T04:30:15.420Z,24.40
2023-11-30T04:32:43.379Z,24.25
2023-11-30T04:35:11.236Z,24.10
2023-11-30T04:37:39.326Z,23.73
2023-11-30T04:40:08.494Z,22.48
2023-11-30T04:42:37.668Z,24.60
2023-11-30T04:45:06.438Z,25.63
2023-11-30T04:47:34.615Z,24.92
2023-11-30T04:50:03.189Z,27.38
2023-11-30T04:52:30.967Z,30.17
2023-11-30T04:54:58.802Z,28.75
2023-11-30T04:57:26.666Z,27.42
2023-11-30T04:59:55.991Z,24.90
2023-11-30T05:02:24.044Z,27.98
2023-11-30T05:04:52.048Z,26.90
2023-11-30T05:07:20.070Z,29.27
2023-11-30T05:09:48.129Z,30.98
2023-11-30T05:12:15.923Z,25.15
2023-11-30T05:14:43.777Z,27.08
2023-11-30T05:17:12.868Z,22.75
2023-11-30T05:19:40.611Z,24.77
2023-11-30T05:22:09.382Z,26.25
2023-11-30T05:24:37.992Z,27.40
2023-11-30T05:27:05.909Z,26.25
2023-11-30T05:29:33.708Z,24.92
2023-11-30T05:32:01.392Z,26.20
2023-11-30T05:34:30.517Z,25.67
2023-11-30T05:36:58.184Z,25.48
2023-11-30T05:39:25.989Z,27.60
2023-11-30T05:41:54.297Z,25.90
2023-11-30T05:44:22.079Z,23.13
2023-11-30T05:46:51.487Z,26.90
2023-11-30T05:49:19.333Z,27.45
2023-11-30T05:51:48.704Z,24.42
2023-11-30T05:54:16.664Z,29.75
2023-11-30T05:56:44.556Z,23.38
2023-11-30T05:59:13.284Z,25.67
2023-11-30T06:01:41.130Z,27.48
2023-11-30T06:04:09.234Z,33.15
2023-11-30T06:06:37.087Z,27.65
2023-11-30T06:09:07.993Z,28.60
2023-11-30T06:11:36.383Z,27.83
2023-11-30T06:14:04.290Z,32.75
2023-11-30T06:16:31.947Z,29.52
2023-11-30T06:18:59.743Z,30.13
2023-11-30T06:21:27.451Z,24.15
2023-11-30T06:23:55.229Z,25.50
2023-11-30T06:26:24.898Z,26.77
2023-11-30T06:28:52.797Z,28.13
2023-11-30T06:31:20.674Z,29.05
2023-11-30T06:33:48.626Z,29.30
2023-11-30T06:36:16.441Z,27.98
2023-11-30T06:38:45.025Z,24.42
2023-11-30T06:41:13.005Z,28.38
2023-11-30T06:43:42.592Z,32.10
2023-11-30T06:46:10.350Z,29.27
2023-11-30T06:48:38.053Z,27.05
2023-11-30T06:51:08.357Z,24.83
2023-11-30T06:53:36.381Z,25.90
2023-11-30T06:56:04.325Z,25.08
2023-11-30T06:58:32.117Z,26.98
2023-11-30T07:01:01.815Z,26.52
2023-11-30T07:03:32.095Z,29.98
2023-11-30T07:06:07.485Z,27.92
2023-11-30T07:08:37.382Z,31.95
2023-11-30T07:11:09.706Z,30.15
2023-11-30T07:13:37.530Z,25.05
2023-11-30T07:16:07.915Z,31.35
2023-11-30T07:18:35.875Z,31.23
2023-11-30T07:21:05.153Z,28.90
2023-11-30T07:23:33.064Z,28.25
2023-11-30T07:26:00.797Z,28.77
2023-11-30T07:28:28.587Z,28.27
2023-11-30T07:30:56.420Z,24.67
2023-11-30T07:33:25.598Z,28.63
2023-11-30T07:35:53.281Z,25.08
2023-11-30T07:38:21.078Z,28.85
2023-11-30T07:40:49.356Z,28.27
2023-11-30T07:43:17.526Z,24.73
2023-11-30T07:45:45.362Z,27.88
2023-11-30T07:48:13.272Z,25.85
2023-11-30T07:50:42.568Z,25.60
2023-11-30T07:53:10.856Z,25.35
2023-11-30T07:55:38.789Z,32.63
2023-11-30T07:58:06.900Z,26.70
2023-11-30T08:00:34.774Z,25.15
2023-11-30T08:03:02.895Z,26.17
2023-11-30T08:05:30.777Z,26.00
2023-11-30T08:07:59.943Z,25.00
2023-11-30T08:10:27.918Z,25.30
2023-11-30T08:12:55.668Z,25.42
2023-11-30T08:15:24.409Z,24.90
2023-11-30T08:17:52.550Z,24.98
2023-11-30T08:20:20.586Z,22.65
2023-11-30T08:22:48.749Z,27.40
2023-11-30T08:25:18.624Z,23.77
2023-11-30T08:27:50.962Z,25.38
2023-11-30T08:30:20.881Z,25.98
2023-11-30T08:32:48.644Z,24.67
2023-11-30T08:35:16.530Z,25.60
2023-11-30T08:37:44.951Z,26.85
2023-11-30T08:40:13.218Z,25.02
2023-11-30T08:42:42.525Z,26.73
2023-11-30T08:45:11.243Z,26.08
2023-11-30T08:47:39.053Z,24.38
2023-11-30T08:50:07.300Z,25.70
2023-11-30T08:52:35.282Z,24.50
2023-11-30T08:55:03.495Z,22.73
2023-11-30T08:57:31.252Z,23.83
2023-11-30T09:00:00.550Z,23.58
2023-11-30T09:02:28.663Z,24.58
2023-11-30T09:04:56.411Z,22.92
2023-11-30T09:07:24.339Z,22.90
2023-11-30T09:09:52.179Z,23.35
2023-11-30T09:12:20.123Z,22.77
2023-11-30T09:14:47.989Z,21.88
2023-11-30T09:17:17.573Z,22.33
2023-11-30T09:19:45.430Z,20.20
2023-11-30T09:22:13.221Z,23.67
2023-11-30T09:24:41.105Z,23.02
2023-11-30T09:27:09.692Z,23.98
2023-11-30T09:29:37.688Z,21.27
2023-11-30T09:32:06.698Z,20.05
2023-11-30T09:34:35.764Z,23.92
2023-11-30T09:37:03.614Z,25.98
2023-11-30T09:39:31.509Z,20.92
2023-11-30T09:42:01.195Z,23.52
2023-11-30T09:44:29.572Z,20.50
2023-11-30T09:46:57.430Z,23.05
2023-11-30T09:49:25.295Z,23.75
2023-11-30T09:51:54.750Z,21.48
2023-11-30T09:54:24.209Z,22.85
2023-11-30T09:56:52.271Z,21.92
2023-11-30T09:59:20.444Z,22.20
2023-11-30T10:01:58.762Z,20.50
2023-11-30T10:04:28.902Z,22.98
2023-11-30T10:06:58.943Z,21.08
2023-11-30T10:09:26.778Z,25.58
2023-11-30T10:11:55.536Z,26.27
2023-11-30T10:14:23.953Z,26.17
2023-11-30T10:16:51.881Z,25.40
2023-11-30T10:19:19.802Z,20.02
2023-11-30T10:21:48.826Z,19.60
2023-11-30T10:24:23.985Z,19.52
2023-11-30T10:26:53.566Z,20.60
2023-11-30T10:29:22.914Z,19.75
2023-11-30T10:31:52.433Z,21.25
2023-11-30T10:34:25.632Z,19.40
2023-11-30T10:36:53.519Z,23.17
2023-11-30T10:39:24.761Z,20.77
2023-11-30T10:41:53.766Z,19.15
2023-11-30T10:44:27.968Z,21.83
2023-11-30T10:46:57.400Z,21.88
2023-11-30T10:49:25.278Z,20.17
2023-11-30T10:51:53.909Z,21.70
2023-11-30T10:54:42.822Z,22.60
2023-11-30T10:57:10.989Z,21.83
2023-11-30T10:59:44.324Z,19.67
2023-11-30T11:02:15.676Z,20.40
2023-11-30T11:04:44.811Z,26.77
2023-11-30T11:07:14.757Z,19.67
2023-11-30T11:09:47.701Z,19.50
2023-11-30T11:12:49.356Z,18.98
2023-11-30T11:15:23.215Z,19.90
2023-11-30T11:17:52.982Z,18.42
2023-11-30T11:20:26.125Z,18.58
2023-11-30T11:22:57.097Z,19.90
2023-11-30T11:25:28.580Z,20.83
2023-11-30T11:27:56.887Z,19.15
2023-11-30T11:30:27.918Z,17.45
2023-11-30T11:32:58.452Z,20.30
2023-11-30T11:35:27.617Z,21.25
2023-11-30T11:37:57.513Z,19.92
2023-11-30T11:40:27.027Z,21.63
2023-11-30T11:42:55.526Z,21.15
2023-11-30T11:45:23.373Z,20.08
2023-11-30T11:47:51.081Z,21.92
2023-11-30T11:50:19.463Z,19.02
2023-11-30T11:52:47.113Z,21.88
2023-11-30T11:55:15.312Z,21.25
2023-11-30T11:57:45.479Z,21.90
2023-11-30T12:00:16.743Z,19.88
2023-11-30T12:02:45.034Z,19.55
2023-11-30T12:05:14.654Z,18.90
2023-11-30T12:07:50.156Z,19.77
2023-11-30T12:10:28.750Z,20.50
2023-11-30T12:12:59.060Z,18.20
2023-11-30T12:15:26.762Z,17.85
2023-11-30T12:17:54.852Z,16.80
2023-11-30T12:20:22.866Z,16.00
2023-11-30T12:22:51.879Z,17.73
2023-11-30T12:25:19.480Z,16.95
2023-11-30T12:27:47.198Z,15.57
2023-11-30T12:30:16.482Z,19.70
2023-11-30T12:32:44.464Z,16.63
2023-11-30T12:35:13.388Z,20.52
2023-11-30T12:37:41.362Z,16.92
2023-11-30T12:40:11.658Z,19.95
2023-11-30T12:42:39.448Z,14.05
2023-11-30T12:45:08.398Z,15.00
2023-11-30T12:47:41.211Z,14.52
2023-11-30T12:50:10.461Z,16.98
2023-11-30T12:52:38.239Z,15.65
2023-11-30T12:55:06.981Z,16.25
2023-11-30T12:57:35.898Z,16.63
2023-11-30T13:00:10.640Z,17.42
2023-11-30T13:02:41.517Z,17.85
2023-11-30T13:05:09.204Z,18.40
2023-11-30T13:07:37.843Z,14.40
2023-11-30T13:10:06.049Z,17.95
2023-11-30T13:12:34.313Z,18.10
2023-11-30T13:15:01.913Z,16.98
2023-11-30T13:17:29.622Z,16.65
2023-11-30T13:19:58.616Z,15.82
2023-11-30T13:22:26.212Z,17.70
2023-11-30T13:24:53.816Z,16.48
2023-11-30T13:27:22.460Z,17.05
2023-11-30T13:29:50.109Z,20.35
2023-11-30T13:32:17.719Z,15.65
2023-11-30T13:34:45.436Z,14.23
2023-11-30T13:37:16.161Z,18.48
2023-11-30T13:39:43.815Z,16.42
2023-11-30T13:42:11.691Z,16.33
2023-11-30T13:44:40.108Z,15.35
2023-11-30T13:47:09.124Z,15.38
2023-11-30T13:49:36.815Z,13.98
2023-11-30T13:52:04.719Z,15.60
2023-11-30T13:54:33.653Z,15.98
2023-11-30T13:57:01.732Z,14.68
2023-11-30T13:59:29.446Z,16.75
2023-11-30T14:01:57.119Z,17.80
2023-11-30T14:04:24.720Z,15.15
2023-11-30T14:06:57.660Z,17.88
2023-11-30T14:09:27.952Z,15.82
2023-11-30T14:11:57.553Z,17.85
2023-11-30T14:14:25.394Z,15.00
2023-11-30T14:16:53.019Z,14.93
2023-11-30T14:19:20.682Z,18.08
2023-11-30T14:21:48.333Z,15.57
2023-11-30T14:24:16.697Z,16.67
2023-11-30T14:26:44.335Z,15.80
2023-11-30T14:29:13.277Z,15.55
2023-11-30T14:31:40.891Z,15.65
2023-11-30T14:34:08.528Z,17.67
2023-11-30T14:36:36.253Z,15.45
2023-11-30T14:39:04.940Z,15.25
2023-11-30T14:41:32.611Z,17.20
2023-11-30T14:44:00.297Z,15.68
2023-11-30T14:46:29.341Z,13.60
2023-11-30T14:48:57.097Z,17.67
2023-11-30T14:51:24.810Z,16.77
2023-11-30T14:53:52.492Z,16.33
2023-11-30T14:56:21.380Z,17.52
2023-11-30T14:58:48.981Z,21.08
2023-11-30T15:01:16.761Z,17.02
2023-11-30T15:03:46.880Z,16.67
2023-11-30T15:06:14.743Z,20.25
2023-11-30T15:08:42.364Z,22.30
2023-11-30T15:11:10.217Z,18.13
2023-11-30T15:13:37.828Z,23.40
2023-11-30T15:16:06.183Z,18.73
2023-11-30T15:18:33.948Z,19.08
2023-11-30T15:21:03.240Z,18.63
2023-11-30T15:23:31.215Z,16.65
2023-11-30T15:25:58.797Z,18.70
2023-11-30T15:28:26.377Z,19.52
2023-11-30T15:30:54.258Z,17.85
2023-11-30T15:33:21.990Z,17.77
2023-11-30T15:35:49.554Z,18.98
2023-11-30T15:38:19.466Z,21.60
2023-11-30T15:40:47.340Z,17.83
2023-11-30T15:43:14.955Z,20.48
2023-11-30T15:45:42.818Z,19.30
2023-11-30T15:48:10.912Z,18.40
2023-11-30T15:50:38.663Z,20.92
2023-11-30T15:53:06.685Z,21.95
2023-11-30T15:55:35.677Z,19.40
2023-11-30T15:58:05.197Z,16.42
2023-11-30T16:00:32.935Z,18.83
2023-11-30T16:03:01.478Z,19.00
2023-11-30T16:05:30.054Z,19.27
2023-11-30T16:07:57.869Z,19.10
2023-11-30T16:10:26.772Z,17.92
2023-11-30T16:12:55.867Z,20.85
2023-11-30T16:15:25.671Z,18.98
2023-11-30T16:17:53.635Z,22.17
2023-11-30T16:20:21.374Z,21.77
2023-11-30T16:22:49.412Z,22.50
2023-11-30T16:25:17.208Z,17.50
2023-11-30T16:27:44.964Z,21.58
2023-11-30T16:30:14.740Z,23.73
2023-11-30T16:32:42.454Z,23.88
2023-11-30T16:35:10.714Z,24.60
2023-11-30T16:37:38.830Z,21.15
2023-11-30T16:40:08.392Z,20.88
2023-11-30T16:42:36.791Z,24.73
2023-11-30T16:45:05.254Z,21.60
2023-11-30T16:47:34.633Z,21.95
2023-11-30T16:50:04.280Z,23.15
2023-11-30T16:52:32.146Z,24.85
2023-11-30T16:54:59.816Z,25.08
2023-11-30T16:57:32.925Z,25.05
2023-11-30T17:02:29.032Z,27.08
2023-11-30T17:04:58.118Z,26.02
2023-11-30T17:07:25.971Z,25.83
2023-11-30T17:09:53.693Z,24.70
2023-11-30T17:12:22.759Z,23.50
2023-11-30T17:14:50.997Z,27.77
2023-11-30T17:17:18.980Z,24.55
2023-11-30T17:19:46.968Z,23.05
2023-11-30T17:22:16.419Z,24.42
2023-11-30T17:24:44.491Z,23.80
2023-11-30T17:27:13.894Z,24.50
2023-11-30T17:29:42.819Z,24.02
2023-11-30T17:32:11.496Z,24.98
2023-11-30T17:34:39.518Z,24.88
2023-11-30T17:37:09.565Z,28.67
2023-11-30T17:39:38.958Z,25.45
2023-11-30T17:42:07.236Z,22.95
2023-11-30T17:44:35.086Z,25.55
2023-11-30T17:47:02.812Z,24.15
2023-11-30T17:49:30.862Z,21.67
2023-11-30T17:51:58.720Z,24.70
2023-11-30T17:54:26.404Z,20.45
2023-11-30T17:56:55.437Z,22.85
2023-11-30T17:59:23.053Z,26.38
2023-11-30T18:01:50.666Z,22.40
2023-11-30T18:04:18.361Z,23.15
2023-11-30T18:06:46.001Z,23.02
2023-11-30T18:09:13.688Z,22.20
2023-11-30T18:11:41.640Z,23.00
2023-11-30T18:14:11.805Z,24.48
2023-11-30T18:16:39.458Z,19.63
2023-11-30T18:19:07.085Z,21.65
2023-11-30T18:21:35.053Z,24.25
2023-11-30T18:24:02.935Z,24.08
2023-11-30T18:26:30.648Z,21.50
2023-11-30T18:28:58.350Z,25.33
2023-11-30T18:31:27.684Z,22.77
2023-11-30T18:33:55.454Z,24.25
2023-11-30T18:36:23.220Z,18.58
2023-11-30T18:38:52.105Z,23.58
2023-11-30T18:41:20.333Z,24.67
2023-11-30T18:43:47.977Z,24.48
2023-11-30T18:46:16.289Z,25.67
2023-11-30T18:48:46.451Z,24.58
2023-11-30T18:51:14.137Z,23.23
2023-11-30T18:53:41.988Z,22.95
2023-11-30T18:56:10.406Z,23.95
2023-11-30T18:58:39.544Z,26.10
2023-11-30T19:01:07.472Z,19.90
2023-11-30T19:03:35.999Z,24.30
2023-11-30T19:06:05.626Z,25.33
2023-11-30T19:08:33.461Z,23.67
2023-11-30T19:11:01.263Z,21.58
2023-11-30T19:13:29.222Z,22.77
2023-11-30T19:15:56.909Z,28.25
2023-11-30T19:18:24.738Z,25.25
2023-11-30T19:20:52.463Z,23.85
2023-11-30T19:23:21.439Z,24.15
2023-11-30T19:25:49.061Z,23.33
2023-11-30T19:28:16.632Z,25.35
2023-11-30T19:30:44.301Z,23.77
2023-11-30T19:33:12.442Z,22.00
2023-11-30T19:35:40.199Z,27.83
2023-11-30T19:38:07.918Z,25.05
2023-11-30T19:40:36.828Z,26.10
2023-11-30T19:43:04.603Z,29.33
2023-11-30T19:45:32.230Z,27.58
2023-11-30T19:48:00.022Z,25.98
2023-11-30T19:50:28.676Z,26.98
2023-11-30T19:52:56.271Z,27.63
2023-11-30T19:55:24.175Z,28.40
2023-11-30T19:57:53.087Z,26.88
2023-11-30T20:00:20.789Z,24.20
2023-11-30T20:02:48.700Z,22.65
2023-11-30T20:05:17.297Z,19.08
2023-11-30T20:07:46.267Z,19.95
2023-11-30T20:10:13.903Z,23.88
2023-11-30T20:12:42.768Z,21.20
2023-11-30T20:15:11.968Z,18.80
2023-11-30T20:17:39.890Z,21.13
2023-11-30T20:20:08.609Z,22.05
2023-11-30T20:22:36.252Z,22.92
2023-11-30T20:25:04.023Z,20.63
2023-11-30T20:27:31.761Z,23.90
2023-11-30T20:29:59.475Z,21.80
2023-11-30T20:32:28.475Z,22.75
2023-11-30T20:34:56.111Z,23.15
2023-11-30T20:37:25.895Z,24.33
2023-11-30T20:39:53.947Z,21.52
2023-11-30T20:42:21.701Z,21.77
2023-11-30T20:44:53.129Z,20.77
2023-11-30T20:47:22.357Z,23.27
2023-11-30T20:49:51.716Z,19.45
2023-11-30T20:52:19.886Z,21.23
2023-11-30T20:54:48.393Z,21.33
2023-11-30T20:57:16.882Z,22.30
2023-11-30T20:59:44.512Z,21.90
2023-11-30T21:02:13.973Z,22.00
2023-11-30T21:04:41.782Z,22.10
2023-11-30T21:07:12.090Z,23.60
2023-11-30T21:09:39.809Z,22.40
2023-11-30T21:12:08.411Z,20.90
2023-11-30T21:14:36.036Z,20.17
2023-11-30T21:17:34.876Z,21.27
2023-11-30T21:20:03.191Z,25.95
2023-11-30T21:22:32.794Z,23.80
2023-11-30T21:25:00.513Z,22.75
2023-11-30T21:27:28.211Z,24.77
2023-11-30T21:29:55.859Z,25.05
2023-11-30T21:32:23.447Z,22.15
2023-11-30T21:34:51.025Z,24.25
2023-11-30T21:37:18.745Z,23.10
2023-11-30T21:39:47.648Z,21.73
2023-11-30T21:42:15.343Z,22.73
2023-11-30T21:44:43.554Z,23.35
2023-11-30T21:47:13.088Z,21.50
2023-11-30T21:49:41.551Z,22.60
2023-11-30T21:52:09.218Z,21.98
2023-11-30T21:54:36.907Z,22.63
2023-11-30T21:57:06.177Z,21.52
2023-11-30T21:59:37.555Z,21.95
2023-11-30T22:02:05.813Z,20.95
2023-11-30T22:04:33.808Z,19.70
2023-11-30T22:07:01.794Z,22.85
2023-11-30T22:09:29.937Z,22.17
2023-11-30T22:11:58.143Z,24.23
2023-11-30T22:14:27.216Z,20.75
2023-11-30T22:16:55.316Z,23.83
2023-11-30T22:19:23.056Z,21.38
2023-11-30T22:21:50.752Z,26.10
2023-11-30T22:24:18.636Z,22.95
2023-11-30T22:26:46.262Z,25.95
2023-11-30T22:29:13.898Z,22.48
2023-11-30T22:31:42.835Z,23.23
2023-11-30T22:34:10.516Z,22.77
2023-11-30T22:36:38.260Z,23.75
2023-11-30T22:39:05.852Z,22.65
2023-11-30T22:41:33.524Z,23.80
2023-11-30T22:44:01.153Z,22.75
2023-11-30T22:46:28.900Z,22.33
2023-11-30T22:48:57.898Z,25.63
2023-11-30T22:51:25.671Z,23.05
2023-11-30T22:53:53.311Z,26.13
2023-11-30T22:56:26.271Z,22.58
2023-11-30T23:01:22.090Z,22.58
2023-11-30T23:03:50.077Z,24.25
2023-11-30T23:06:19.212Z,25.10
2023-11-30T23:08:47.138Z,23.98
2023-11-30T23:11:14.784Z,25.55
2023-11-30T23:13:42.377Z,22.60
2023-11-30T23:16:12.389Z,21.85
2023-11-30T23:18:40.539Z,23.20
2023-11-30T23:21:08.638Z,25.02
2023-11-30T23:23:37.579Z,24.08
2023-11-30T23:26:05.700Z,27.40
2023-11-30T23:28:33.796Z,24.17
2023-11-30T23:31:01.610Z,22.88
2023-11-30T23:33:29.307Z,23.48
2023-11-30T23:35:56.990Z,27.05
2023-11-30T23:38:24.905Z,28.45
2023-11-30T23:40:53.860Z,30.10
2023-11-30T23:43:21.534Z,24.38
2023-11-30T23:45:49.164Z,26.67
2023-11-30T23:48:16.833Z,23.77
2023-11-30T23:50:44.435Z,24.30
2023-11-30T23:53:12.026Z,24.58
2023-11-30T23:55:39.614Z,29.25
2023-11-30T23:58:08.606Z,26.73
